Time;durP1;ratioP1;P1;durP2;ratioP2;P2;SDS_P1;SDS_P2;PMS_P1;PMS_P2;Temp;Humidity;BMP_temperature;BMP_pressure;BME280_temperature;BME280_humidity;BME280_pressure;Samples;Min_cycle;Max_cycle;Signal;HPM_P1;HPM_P2
2023/08/04 00:00:23;;;;;;;6.25;2.30;;;18.20;94.40;;;;;;5054411;28;20025;-77
2023/08/04 00:02:49;;;;;;;5.70;2.10;;;18.20;94.50;;;;;;5036538;28;20017;-77
2023/08/04 00:05:14;;;;;;;6.38;2.20;;;18.20;94.40;;;;;;5036596;28;20079;-78
2023/08/04 00:07:42;;;;;;;5.25;2.15;;;18.20;94.50;;;;;;5054392;28;20020;-77
2023/08/04 00:10:08;;;;;;;6.70;2.40;;;18.20;94.40;;;;;;5053793;28;20471;-78
2023/08/04 00:12:34;;;;;;;7.15;2.20;;;18.20;94.40;;;;;;5036259;28;20087;-77
2023/08/04 00:15:00;;;;;;;5.88;2.30;;;18.20;94.40;;;;;;5036236;28;20017;-77
2023/08/04 00:17:26;;;;;;;5.13;2.03;;;18.20;94.40;;;;;;5054104;28;20021;-77
2023/08/04 00:19:51;;;;;;;6.15;2.05;;;18.20;94.40;;;;;;5037438;28;20025;-77
2023/08/04 00:22:17;;;;;;;5.78;2.28;;;18.10;94.40;;;;;;5038874;28;20017;-78
2023/08/04 00:24:42;;;;;;;6.57;2.15;;;18.20;94.40;;;;;;5032814;28;20025;-77
2023/08/04 00:27:08;;;;;;;5.93;2.10;;;18.20;94.40;;;;;;5033729;28;20044;-78
2023/08/04 00:29:34;;;;;;;5.65;2.00;;;18.10;94.30;;;;;;5035740;28;20112;-78
2023/08/04 00:32:00;;;;;;;6.68;2.05;;;18.10;94.30;;;;;;5035783;28;20028;-78
2023/08/04 00:34:25;;;;;;;5.80;2.42;;;18.10;94.30;;;;;;5035805;28;20485;-79
2023/08/04 00:36:51;;;;;;;5.18;2.10;;;18.20;94.30;;;;;;5035869;28;20021;-77
2023/08/04 00:39:17;;;;;;;6.53;1.92;;;18.10;94.20;;;;;;5031993;28;20108;-77
2023/08/04 00:41:43;;;;;;;5.60;2.00;;;18.10;94.20;;;;;;5033526;28;20477;-78
2023/08/04 00:44:09;;;;;;;6.20;2.45;;;18.20;94.20;;;;;;5049737;28;20032;-77
2023/08/04 00:46:36;;;;;;;5.88;2.30;;;18.10;94.20;;;;;;5053743;28;20056;-77
2023/08/04 00:49:02;;;;;;;9.02;2.30;;;18.20;94.10;;;;;;5035317;28;20025;-77
2023/08/04 00:51:33;;;;;;;6.28;2.10;;;18.20;94.10;;;;;;5053329;28;20467;-77
2023/08/04 00:53:59;;;;;;;6.43;1.85;;;18.20;94.00;;;;;;5053648;28;20435;-79
2023/08/04 00:56:25;;;;;;;8.00;2.55;;;18.20;93.90;;;;;;5053417;28;20025;-79
2023/08/04 00:58:52;;;;;;;5.47;2.05;;;18.20;93.90;;;;;;5035706;28;20091;-78
2023/08/04 01:01:17;;;;;;;6.00;2.05;;;18.20;93.80;;;;;;5032251;28;20032;-77
2023/08/04 01:03:43;;;;;;;5.30;1.92;;;18.20;93.80;;;;;;5049032;28;20025;-78
2023/08/04 01:06:31;;;;;;;5.78;2.42;;;18.20;93.80;;;;;;5053836;28;20118;-77
2023/08/04 01:09:23;;;;;;;5.38;2.00;;;18.20;93.80;;;;;;5031952;28;20021;-77
2023/08/04 01:12:17;;;;;;;5.22;2.00;;;18.20;93.70;;;;;;5052918;28;20037;-77
2023/08/04 01:14:45;;;;;;;7.97;2.30;;;18.20;93.70;;;;;;5053439;28;20071;-78
2023/08/04 01:17:31;;;;;;;7.78;2.30;;;18.20;93.70;;;;;;5035320;28;20025;-77
2023/08/04 01:19:58;;;;;;;6.50;2.10;;;18.20;93.70;;;;;;5035373;28;20052;-78
2023/08/04 01:22:25;;;;;;;5.20;2.30;;;18.20;93.70;;;;;;5035120;28;20031;-77
2023/08/04 01:24:51;;;;;;;5.88;2.22;;;18.20;93.80;;;;;;5038099;28;20048;-77
2023/08/04 01:27:38;;;;;;;5.40;2.15;;;18.20;93.80;;;;;;5015164;28;20026;-78
2023/08/04 01:30:09;;;;;;;6.38;2.25;;;18.10;93.80;;;;;;5015190;28;20017;-78
2023/08/04 01:32:35;;;;;;;4.32;2.13;;;18.20;93.80;;;;;;5015521;28;20428;-78
2023/08/04 01:35:01;;;;;;;6.30;2.17;;;18.10;93.80;;;;;;5015821;28;20040;-78
2023/08/04 01:37:26;;;;;;;4.68;2.10;;;18.10;93.80;;;;;;5033255;28;20026;-77
2023/08/04 01:39:52;;;;;;;7.70;2.42;;;18.10;93.80;;;;;;5034645;28;20074;-78
2023/08/04 01:42:18;;;;;;;7.10;2.42;;;18.10;93.80;;;;;;5051630;28;20476;-78
2023/08/04 01:44:43;;;;;;;9.98;3.00;;;18.10;93.80;;;;;;5052878;28;20033;-77
2023/08/04 01:47:09;;;;;;;5.80;2.38;;;18.10;93.80;;;;;;5052891;28;20377;-78
2023/08/04 01:49:34;;;;;;;7.70;2.47;;;18.10;93.80;;;;;;5034873;28;20791;-78
2023/08/04 01:52:01;;;;;;;8.05;2.72;;;18.10;93.80;;;;;;5035016;28;20057;-78
2023/08/04 01:54:27;;;;;;;5.20;2.33;;;18.10;93.80;;;;;;5029705;28;20029;-77
2023/08/04 01:56:52;;;;;;;6.47;2.65;;;18.10;93.80;;;;;;5015134;28;20362;-78
2023/08/04 01:59:18;;;;;;;6.10;2.20;;;18.10;93.80;;;;;;5032999;28;20034;-77
2023/08/04 02:01:43;;;;;;;5.80;2.60;;;18.10;93.80;;;;;;5017285;28;20025;-77
2023/08/04 02:04:09;;;;;;;5.82;2.50;;;18.10;93.80;;;;;;5037328;28;20017;-78
2023/08/04 02:06:34;;;;;;;5.50;2.40;;;18.10;93.80;;;;;;5043329;28;20059;-78
2023/08/04 02:09:00;;;;;;;7.70;2.78;;;18.10;93.80;;;;;;5057179;28;20083;-78
2023/08/04 02:11:25;;;;;;;5.72;2.40;;;18.10;93.80;;;;;;5038577;28;20072;-78
2023/08/04 02:13:51;;;;;;;7.15;2.70;;;18.10;93.80;;;;;;5039064;28;20033;-78
2023/08/04 02:16:16;;;;;;;6.10;2.60;;;18.10;93.80;;;;;;5038895;28;20426;-78
2023/08/04 02:18:42;;;;;;;7.25;2.67;;;18.10;93.80;;;;;;5056839;28;20025;-79
2023/08/04 02:21:08;;;;;;;7.03;2.65;;;18.10;93.80;;;;;;5048759;28;20029;-78
2023/08/04 02:23:33;;;;;;;7.22;2.80;;;18.10;93.90;;;;;;5038847;28;20035;-78
2023/08/04 02:25:58;;;;;;;5.28;2.45;;;18.10;93.80;;;;;;5038772;28;20052;-78
2023/08/04 02:28:24;;;;;;;6.35;2.55;;;18.10;93.90;;;;;;5038576;28;20051;-80
2023/08/04 02:30:49;;;;;;;6.80;2.40;;;18.10;93.70;;;;;;5038235;28;20039;-78
2023/08/04 02:33:15;;;;;;;5.40;2.40;;;18.10;93.70;;;;;;5038300;28;20116;-77
2023/08/04 02:35:41;;;;;;;6.05;3.05;;;18.20;93.70;;;;;;5038729;28;20124;-79
2023/08/04 02:38:06;;;;;;;7.03;2.97;;;18.10;93.70;;;;;;5038563;28;20096;-78
2023/08/04 02:40:37;;;;;;;5.65;2.80;;;18.10;93.60;;;;;;5056034;28;20025;-78
2023/08/04 02:43:02;;;;;;;4.82;2.33;;;18.20;93.70;;;;;;5038511;28;20025;-78
2023/08/04 02:45:28;;;;;;;8.30;2.88;;;18.10;93.60;;;;;;5022094;28;20070;-78
2023/08/04 02:47:53;;;;;;;5.40;2.20;;;18.10;93.60;;;;;;5026800;28;20025;-78
2023/08/04 02:50:19;;;;;;;4.88;2.80;;;18.20;93.60;;;;;;5037935;28;20036;-78
2023/08/04 02:52:44;;;;;;;6.72;2.70;;;18.20;93.70;;;;;;5038449;28;20112;-77
2023/08/04 02:55:11;;;;;;;6.15;2.83;;;18.10;93.60;;;;;;5038415;28;20056;-78
2023/08/04 02:57:37;;;;;;;7.30;3.45;;;18.10;93.70;;;;;;5048083;28;20074;-78
2023/08/04 03:00:03;;;;;;;6.88;2.90;;;18.20;93.70;;;;;;5053273;28;20051;-78
2023/08/04 03:02:29;;;;;;;7.57;3.10;;;18.10;93.80;;;;;;5036877;28;20018;-77
2023/08/04 03:04:54;;;;;;;6.40;3.00;;;18.10;93.80;;;;;;5055646;28;20028;-76
2023/08/04 03:07:21;;;;;;;6.47;3.17;;;18.10;93.90;;;;;;5044196;28;20017;-77
2023/08/04 03:09:46;;;;;;;5.72;3.13;;;18.10;93.90;;;;;;5036142;28;20035;-78
2023/08/04 03:12:12;;;;;;;5.82;2.80;;;18.10;93.90;;;;;;5038538;28;20462;-78
2023/08/04 03:14:37;;;;;;;5.00;2.72;;;18.10;93.90;;;;;;5038042;28;20039;-78
2023/08/04 03:17:03;;;;;;;6.30;3.15;;;18.10;94.00;;;;;;5055731;28;20384;-78
2023/08/04 03:19:28;;;;;;;6.20;3.17;;;18.10;94.00;;;;;;5037416;28;20112;-77
2023/08/04 03:21:54;;;;;;;6.18;2.88;;;18.10;94.00;;;;;;5055513;28;20381;-77
2023/08/04 03:24:19;;;;;;;7.47;3.25;;;18.10;94.00;;;;;;5037543;28;20449;-78
2023/08/04 03:26:45;;;;;;;6.43;3.22;;;18.00;94.00;;;;;;5037363;28;20028;-78
2023/08/04 03:29:10;;;;;;;6.90;2.85;;;18.10;94.00;;;;;;5037627;28;20532;-78
2023/08/04 03:31:36;;;;;;;5.75;3.10;;;18.00;94.00;;;;;;5037119;28;20029;-78
2023/08/04 03:34:02;;;;;;;6.20;3.08;;;18.00;94.00;;;;;;5037473;28;20119;-78
2023/08/04 03:36:27;;;;;;;8.38;2.83;;;18.00;94.00;;;;;;5055326;28;20029;-78
2023/08/04 03:38:52;;;;;;;6.15;2.83;;;18.00;94.00;;;;;;5055282;28;20025;-78
2023/08/04 03:41:18;;;;;;;6.63;3.05;;;18.00;94.00;;;;;;5037075;28;20025;-78
2023/08/04 03:43:44;;;;;;;6.80;3.10;;;18.10;94.00;;;;;;5055228;28;20074;-77
2023/08/04 03:46:09;;;;;;;6.05;3.00;;;18.00;94.00;;;;;;5037346;28;20113;-78
2023/08/04 03:48:35;;;;;;;7.72;3.45;;;18.00;94.00;;;;;;5037460;28;20389;-78
2023/08/04 03:51:00;;;;;;;6.45;3.13;;;18.00;94.00;;;;;;5054872;28;20025;-78
2023/08/04 03:53:26;;;;;;;7.18;3.20;;;18.00;94.00;;;;;;5055283;28;20489;-78
2023/08/04 03:55:51;;;;;;;8.05;3.78;;;18.00;94.00;;;;;;5055026;28;20025;-79
2023/08/04 03:58:17;;;;;;;6.70;3.10;;;18.00;94.00;;;;;;5037171;28;20024;-78
2023/08/04 04:00:42;;;;;;;7.72;3.38;;;18.10;94.00;;;;;;5054604;28;20025;-78
2023/08/04 04:03:08;;;;;;;5.93;3.10;;;18.00;94.00;;;;;;5054874;28;20025;-80
2023/08/04 04:05:33;;;;;;;5.90;3.17;;;18.00;93.90;;;;;;5036964;28;20078;-78
2023/08/04 04:07:59;;;;;;;7.13;3.10;;;18.10;94.00;;;;;;5054701;28;20029;-78
2023/08/04 04:10:24;;;;;;;6.53;3.10;;;18.10;94.10;;;;;;5036511;28;20036;-78
2023/08/04 04:12:50;;;;;;;5.88;3.10;;;18.10;93.90;;;;;;5047380;28;20034;-78
2023/08/04 04:15:15;;;;;;;7.32;2.97;;;18.10;93.80;;;;;;5033072;28;20466;-78
2023/08/04 04:17:41;;;;;;;6.82;3.20;;;18.10;93.80;;;;;;5033355;28;20061;-79
2023/08/04 04:20:07;;;;;;;6.47;2.83;;;18.10;93.70;;;;;;5043293;28;20021;-77
2023/08/04 04:22:33;;;;;;;6.82;2.95;;;18.10;93.70;;;;;;5036390;28;20028;-78
2023/08/04 04:25:00;;;;;;;6.55;3.03;;;18.10;93.70;;;;;;5052320;28;20075;-75
2023/08/04 04:27:26;;;;;;;6.40;3.30;;;18.10;93.70;;;;;;5024138;28;20515;-82
2023/08/04 04:29:52;;;;;;;7.20;3.67;;;18.10;93.70;;;;;;5032538;28;20033;-78
2023/08/04 04:32:17;;;;;;;7.55;3.63;;;18.10;93.60;;;;;;5034163;28;20688;-79
2023/08/04 04:34:43;;;;;;;8.30;3.88;;;18.20;93.70;;;;;;5035833;28;20029;-79
2023/08/04 04:37:08;;;;;;;5.93;3.25;;;18.10;93.80;;;;;;5017533;28;20040;-83
2023/08/04 04:39:34;;;;;;;7.13;3.42;;;18.10;93.80;;;;;;5013581;28;20027;-77
2023/08/04 04:41:59;;;;;;;8.07;3.50;;;18.10;93.80;;;;;;5034291;28;20120;-80
2023/08/04 04:44:25;;;;;;;6.38;3.55;;;18.10;93.90;;;;;;5033395;28;20025;-77
2023/08/04 04:46:51;;;;;;;7.45;3.92;;;18.10;93.90;;;;;;5032454;28;20040;-80
2023/08/04 04:49:16;;;;;;;7.80;3.58;;;18.00;93.90;;;;;;5033179;28;20040;-78
2023/08/04 04:51:42;;;;;;;7.75;3.80;;;18.10;93.90;;;;;;5048493;28;20075;-81
2023/08/04 04:54:08;;;;;;;8.73;3.67;;;18.10;94.00;;;;;;5032842;28;20100;-78
2023/08/04 04:56:33;;;;;;;8.70;4.15;;;18.00;94.00;;;;;;5049469;28;20032;-81
2023/08/04 04:58:59;;;;;;;8.23;4.20;;;18.00;94.00;;;;;;5032915;28;20116;-79
2023/08/04 05:01:24;;;;;;;8.50;4.05;;;18.00;94.00;;;;;;5036603;28;20028;-80
2023/08/04 05:03:50;;;;;;;10.77;4.38;;;18.00;94.00;;;;;;5050165;28;20043;-77
2023/08/04 05:06:15;;;;;;;9.85;3.78;;;18.00;94.00;;;;;;5017871;28;20424;-83
2023/08/04 05:08:41;;;;;;;16.35;5.15;;;18.00;94.00;;;;;;5036394;28;20656;-78
2023/08/04 05:11:06;;;;;;;9.52;4.18;;;18.00;94.00;;;;;;5028390;28;20033;-78
2023/08/04 05:13:32;;;;;;;10.60;3.88;;;18.10;94.30;;;;;;5032199;28;20106;-81
2023/08/04 05:15:57;;;;;;;12.75;4.35;;;18.00;94.00;;;;;;5032542;28;20681;-78
2023/08/04 05:18:24;;;;;;;16.70;4.50;;;18.00;94.10;;;;;;5033386;28;20025;-80
2023/08/04 05:20:49;;;;;;;14.05;3.88;;;18.00;94.00;;;;;;5051529;28;20358;-82
2023/08/04 05:23:16;;;;;;;16.80;4.60;;;18.00;94.00;;;;;;5032066;28;20082;-81
2023/08/04 05:25:42;;;;;;;12.27;3.83;;;18.00;94.00;;;;;;5033618;28;20033;-76
2023/08/04 05:28:19;;;;;;;11.25;3.83;;;18.00;94.00;;;;;;5051175;28;20087;-78
2023/08/04 05:30:44;;;;;;;11.90;4.10;;;18.00;94.00;;;;;;5029517;28;20033;-78
2023/08/04 05:33:10;;;;;;;7.85;3.60;;;18.00;94.00;;;;;;5044747;28;20043;-78
2023/08/04 05:35:37;;;;;;;13.43;3.80;;;18.00;94.10;;;;;;5015439;28;20109;-78
2023/08/04 05:38:03;;;;;;;10.63;4.10;;;18.10;94.10;;;;;;5029216;28;20014;-79
2023/08/04 05:40:28;;;;;;;13.38;4.32;;;18.00;94.20;;;;;;5014202;28;20020;-78
2023/08/04 05:42:54;;;;;;;10.48;3.80;;;18.00;94.10;;;;;;5032357;28;20029;-81
2023/08/04 05:45:22;;;;;;;10.55;3.75;;;18.10;94.00;;;;;;5030380;28;20119;-79
2023/08/04 05:47:47;;;;;;;10.32;3.63;;;18.10;93.90;;;;;;5034721;28;20086;-79
2023/08/04 05:50:13;;;;;;;9.27;3.65;;;18.10;93.90;;;;;;5034021;28;20025;-78
2023/08/04 05:52:38;;;;;;;9.90;3.78;;;18.10;93.90;;;;;;5030720;28;20096;-78
2023/08/04 05:55:04;;;;;;;9.80;4.13;;;18.10;93.90;;;;;;5030822;28;20025;-77
2023/08/04 05:57:29;;;;;;;10.10;3.83;;;18.10;93.90;;;;;;5031989;28;20116;-76
2023/08/04 05:59:55;;;;;;;8.40;4.10;;;18.10;93.90;;;;;;5030370;28;20507;-76
2023/08/04 06:02:20;;;;;;;12.65;4.30;;;18.10;93.80;;;;;;5030475;28;20269;-77
2023/08/04 06:04:46;;;;;;;10.60;4.00;;;18.10;93.80;;;;;;5030884;28;20032;-77
2023/08/04 06:07:11;;;;;;;11.90;4.20;;;18.10;93.70;;;;;;5030238;28;20033;-77
2023/08/04 06:09:37;;;;;;;8.00;4.43;;;18.10;93.70;;;;;;5048236;28;20028;-77
2023/08/04 06:12:03;;;;;;;10.65;4.57;;;18.00;93.70;;;;;;5047737;28;20045;-79
2023/08/04 06:14:28;;;;;;;10.70;4.88;;;18.00;93.70;;;;;;5030446;28;20025;-77
2023/08/04 06:16:54;;;;;;;10.18;4.95;;;18.00;93.70;;;;;;5030376;28;20045;-76
2023/08/04 06:19:20;;;;;;;10.98;5.35;;;18.00;93.60;;;;;;5030550;28;20025;-80
2023/08/04 06:21:45;;;;;;;9.77;4.85;;;18.00;93.80;;;;;;5048165;28;20021;-77
2023/08/04 06:24:25;;;;;;;9.35;4.75;;;18.00;93.80;;;;;;5043339;28;20036;-78
2023/08/04 06:26:51;;;;;;;9.80;4.90;;;17.90;93.90;;;;;;5030599;28;20032;-79
2023/08/04 06:29:16;;;;;;;8.80;4.70;;;17.90;93.90;;;;;;5030288;28;20024;-77
2023/08/04 06:31:42;;;;;;;9.23;4.90;;;18.00;94.00;;;;;;5029790;28;20033;-77
2023/08/04 06:34:08;;;;;;;10.70;5.10;;;17.90;94.00;;;;;;5038258;28;20084;-77
2023/08/04 06:36:33;;;;;;;8.75;4.57;;;17.90;94.00;;;;;;5010989;28;20400;-78
2023/08/04 06:38:59;;;;;;;8.43;4.60;;;17.90;94.00;;;;;;5028409;28;20088;-78
2023/08/04 06:41:24;;;;;;;11.18;4.20;;;18.00;94.00;;;;;;5021861;28;20320;-77
2023/08/04 06:43:50;;;;;;;8.93;4.43;;;17.90;94.00;;;;;;5031341;28;20032;-78
2023/08/04 06:46:15;;;;;;;13.85;4.75;;;18.00;94.10;;;;;;5032327;28;20033;-78
2023/08/04 06:48:41;;;;;;;11.05;4.68;;;18.00;94.10;;;;;;5035510;28;20547;-78
2023/08/04 06:51:06;;;;;;;7.88;3.90;;;18.00;94.20;;;;;;5036283;28;20051;-79
2023/08/04 06:53:32;;;;;;;10.02;4.40;;;18.00;94.20;;;;;;5037843;28;20119;-80
2023/08/04 06:55:57;;;;;;;25.95;5.07;;;18.00;94.20;;;;;;5041059;28;20024;-77
2023/08/04 06:58:23;;;;;;;31.25;5.63;;;18.00;94.30;;;;;;5056516;28;20083;-79
2023/08/04 07:00:48;;;;;;;25.70;5.03;;;18.00;94.30;;;;;;5041225;28;20029;-80
2023/08/04 07:03:14;;;;;;;14.90;3.80;;;18.00;94.20;;;;;;5058276;28;20119;-79
2023/08/04 07:05:40;;;;;;;14.05;4.60;;;18.00;94.30;;;;;;5062715;28;20025;-80
2023/08/04 07:08:05;;;;;;;10.68;4.30;;;18.00;94.30;;;;;;5043583;28;20568;-78
2023/08/04 07:10:35;;;;;;;10.50;4.10;;;18.00;94.20;;;;;;5038940;28;20038;-81
2023/08/04 07:13:00;;;;;;;7.32;3.97;;;18.00;94.20;;;;;;5035575;28;20033;-79
2023/08/04 07:15:26;;;;;;;11.50;4.38;;;18.00;94.20;;;;;;5055129;28;20025;-84
2023/08/04 07:17:51;;;;;;;8.52;4.07;;;18.00;94.10;;;;;;5037966;28;20033;-80
2023/08/04 07:20:17;;;;;;;9.55;4.20;;;18.00;94.10;;;;;;5055510;28;20083;-81
2023/08/04 07:22:43;;;;;;;17.20;4.38;;;18.00;94.10;;;;;;5046010;28;20021;-80
2023/08/04 07:25:08;;;;;;;10.63;4.18;;;18.00;94.20;;;;;;5041032;28;20028;-80
2023/08/04 07:27:34;;;;;;;7.95;3.92;;;18.10;94.10;;;;;;5050875;28;20025;-83
2023/08/04 07:30:00;;;;;;;8.15;4.00;;;18.10;93.90;;;;;;5039056;28;20021;-82
2023/08/04 07:32:25;;;;;;;7.72;3.60;;;18.10;93.90;;;;;;5038684;28;20029;-79
2023/08/04 07:34:50;;;;;;;9.00;4.00;;;18.10;93.90;;;;;;5032396;28;20021;-78
2023/08/04 07:37:16;;;;;;;7.45;3.67;;;18.10;93.90;;;;;;5032029;28;20111;-76
2023/08/04 07:39:41;;;;;;;9.32;3.65;;;18.20;93.80;;;;;;5031987;28;20500;-76
2023/08/04 07:42:07;;;;;;;9.85;3.80;;;18.20;93.70;;;;;;5046602;28;20025;-78
2023/08/04 07:44:35;;;;;;;9.65;3.60;;;18.20;93.70;;;;;;5032171;28;20028;-77
2023/08/04 07:47:01;;;;;;;8.27;3.60;;;18.30;93.80;;;;;;5050643;28;20025;-77
2023/08/04 07:49:27;;;;;;;8.13;3.53;;;18.20;93.70;;;;;;5032018;28;20083;-77
2023/08/04 07:51:53;;;;;;;8.52;3.28;;;18.20;93.50;;;;;;5033542;28;20021;-79
2023/08/04 07:54:19;;;;;;;7.90;3.50;;;18.20;93.40;;;;;;5059258;28;20071;-79
2023/08/04 07:56:44;;;;;;;8.32;3.58;;;18.20;93.40;;;;;;5056736;28;20017;-77
2023/08/04 07:59:10;;;;;;;7.38;2.95;;;18.20;93.50;;;;;;5054750;28;20104;-78
2023/08/04 08:01:35;;;;;;;9.60;3.00;;;18.20;93.60;;;;;;5054063;28;20037;-77
2023/08/04 08:04:01;;;;;;;9.15;3.85;;;18.20;93.60;;;;;;5036682;28;20025;-77
2023/08/04 08:06:26;;;;;;;6.72;3.15;;;18.20;93.70;;;;;;5054510;28;20477;-77
2023/08/04 08:08:52;;;;;;;10.27;3.13;;;18.20;93.70;;;;;;5036080;28;20051;-77
2023/08/04 08:11:17;;;;;;;9.18;3.25;;;18.20;93.80;;;;;;5032532;28;20053;-77
2023/08/04 08:13:43;;;;;;;7.68;3.05;;;18.20;93.80;;;;;;5032981;28;20481;-77
2023/08/04 08:16:10;;;;;;;8.20;2.75;;;18.20;93.90;;;;;;5034414;28;20152;-77
2023/08/04 08:18:36;;;;;;;9.02;2.85;;;18.30;93.80;;;;;;5034187;28;20022;-77
2023/08/04 08:21:05;;;;;;;6.47;2.80;;;18.30;93.70;;;;;;5032355;28;20048;-77
2023/08/04 08:23:31;;;;;;;5.72;2.83;;;18.30;93.60;;;;;;5034271;28;20064;-77
2023/08/04 08:25:56;;;;;;;5.68;2.70;;;18.30;93.60;;;;;;5032866;28;20029;-77
2023/08/04 08:28:22;;;;;;;6.55;2.70;;;18.30;93.60;;;;;;5032836;28;20116;-77
2023/08/04 08:30:47;;;;;;;5.57;2.60;;;18.30;93.60;;;;;;5042376;28;20036;-77
2023/08/04 08:33:13;;;;;;;6.53;2.65;;;18.30;93.70;;;;;;5053895;28;20052;-77
2023/08/04 08:35:38;;;;;;;6.35;2.50;;;18.30;93.70;;;;;;5053698;28;20104;-77
2023/08/04 08:38:04;;;;;;;10.00;3.00;;;18.30;93.80;;;;;;5036158;28;20074;-77
2023/08/04 08:40:29;;;;;;;7.47;2.70;;;18.30;93.80;;;;;;5053395;28;20477;-77
2023/08/04 08:42:56;;;;;;;5.53;2.47;;;18.20;93.80;;;;;;5027893;28;20036;-77
2023/08/04 08:45:27;;;;;;;5.57;2.33;;;18.20;93.80;;;;;;5015911;28;20029;-77
2023/08/04 08:47:54;;;;;;;4.45;2.20;;;18.20;93.80;;;;;;5016361;28;20022;-77
2023/08/04 08:50:23;;;;;;;6.40;2.58;;;18.30;93.80;;;;;;5020469;28;20029;-77
2023/08/04 08:53:06;;;;;;;5.55;2.50;;;18.20;93.80;;;;;;5053584;28;20071;-77
2023/08/04 08:55:32;;;;;;;4.28;2.03;;;18.20;93.80;;;;;;5053381;28;20024;-77
2023/08/04 08:58:00;;;;;;;5.00;2.20;;;18.30;93.80;;;;;;5036072;28;20044;-77
2023/08/04 09:00:28;;;;;;;5.55;2.50;;;18.30;93.80;;;;;;5052719;28;20063;-77
2023/08/04 09:02:54;;;;;;;6.40;2.30;;;18.30;93.80;;;;;;5053445;28;20526;-77
2023/08/04 09:05:21;;;;;;;4.18;2.13;;;18.30;93.90;;;;;;5053481;28;20024;-77
2023/08/04 09:07:48;;;;;;;4.18;2.28;;;18.30;93.80;;;;;;5035575;28;20087;-77
2023/08/04 09:10:14;;;;;;;4.47;1.98;;;18.30;93.80;;;;;;5052372;28;20033;-77
2023/08/04 09:12:39;;;;;;;4.05;2.15;;;18.30;93.80;;;;;;5036455;28;20495;-77
2023/08/04 09:15:05;;;;;;;5.68;2.30;;;18.30;93.80;;;;;;5053027;28;20103;-78
2023/08/04 09:17:33;;;;;;;4.93;2.20;;;18.30;93.70;;;;;;5035100;28;20025;-76
2023/08/04 09:20:01;;;;;;;4.65;2.10;;;18.30;93.70;;;;;;5052590;28;20025;-76
2023/08/04 09:22:26;;;;;;;4.78;2.20;;;18.40;93.70;;;;;;5052911;28;20028;-77
2023/08/04 09:25:00;;;;;;;4.35;2.00;;;18.40;93.70;;;;;;5035276;28;20033;-77
2023/08/04 09:27:29;;;;;;;5.10;1.95;;;18.30;93.60;;;;;;5053308;28;20020;-78
2023/08/04 09:29:59;;;;;;;3.65;1.90;;;18.40;93.60;;;;;;5052549;28;20029;-77
2023/08/04 09:32:25;;;;;;;4.28;1.85;;;18.40;93.60;;;;;;5034978;28;20028;-77
2023/08/04 09:35:04;;;;;;;4.22;2.05;;;18.40;93.60;;;;;;5052588;28;20500;-78
2023/08/04 09:37:32;;;;;;;4.30;2.05;;;18.40;93.60;;;;;;5034974;28;20021;-77
2023/08/04 09:39:59;;;;;;;5.10;2.10;;;18.40;93.60;;;;;;5034437;28;20025;-75
2023/08/04 09:42:25;;;;;;;3.85;1.75;;;18.30;93.70;;;;;;5034792;28;20032;-77
2023/08/04 09:44:52;;;;;;;3.58;1.80;;;18.40;93.70;;;;;;5034868;28;20020;-77
2023/08/04 09:47:22;;;;;;;4.47;1.90;;;18.30;93.70;;;;;;5052690;28;20076;-77
2023/08/04 09:49:48;;;;;;;4.63;1.90;;;18.30;93.70;;;;;;5034262;28;20029;-77
2023/08/04 09:52:20;;;;;;;4.95;1.90;;;18.30;93.70;;;;;;5034833;28;20027;-77
2023/08/04 09:54:46;;;;;;;5.10;1.90;;;18.30;93.60;;;;;;5034989;28;20465;-77
2023/08/04 09:57:14;;;;;;;4.57;2.08;;;18.40;93.60;;;;;;5052732;28;20029;-77
2023/08/04 09:59:40;;;;;;;3.78;1.95;;;18.40;93.50;;;;;;5034478;28;20048;-77
2023/08/04 10:02:06;;;;;;;3.85;1.95;;;18.40;93.60;;;;;;5052079;28;20476;-78
2023/08/04 10:04:33;;;;;;;5.65;1.80;;;18.40;93.50;;;;;;5052828;28;20425;-78
2023/08/04 10:06:59;;;;;;;5.72;1.80;;;18.30;93.50;;;;;;5034497;28;20032;-77
2023/08/04 10:09:26;;;;;;;3.45;1.83;;;18.40;93.60;;;;;;5034435;28;20068;-77
2023/08/04 10:11:52;;;;;;;4.28;2.05;;;18.30;93.60;;;;;;5018948;28;20179;-77
2023/08/04 10:14:18;;;;;;;4.15;1.80;;;18.30;93.70;;;;;;5032484;28;20059;-78
2023/08/04 10:16:44;;;;;;;4.47;1.80;;;18.30;93.70;;;;;;5032624;28;20113;-77
2023/08/04 10:19:11;;;;;;;4.25;1.90;;;18.40;93.70;;;;;;5040514;28;20533;-77
2023/08/04 10:21:39;;;;;;;3.08;1.60;;;18.30;93.70;;;;;;5042686;28;20013;-77
2023/08/04 10:24:07;;;;;;;3.60;1.70;;;18.30;93.70;;;;;;5043531;28;20041;-78
2023/08/04 10:26:34;;;;;;;3.70;1.90;;;18.30;93.70;;;;;;5038381;28;20039;-77
2023/08/04 10:29:01;;;;;;;4.10;1.60;;;18.30;93.70;;;;;;5038273;28;20028;-76
2023/08/04 10:31:51;;;;;;;4.13;1.65;;;18.30;93.70;;;;;;5038091;28;20028;-77
2023/08/04 10:34:22;;;;;;;2.88;1.67;;;18.30;93.70;;;;;;5038368;28;20025;-77
2023/08/04 10:36:59;;;;;;;4.90;1.83;;;18.30;93.70;;;;;;5038151;28;20029;-79
2023/08/04 10:39:58;;;;;;;4.00;1.98;;;18.30;93.70;;;;;;5037903;28;20032;-77
2023/08/04 10:42:26;;;;;;;3.25;1.65;;;18.30;93.70;;;;;;5055905;28;20020;-77
2023/08/04 10:44:53;;;;;;;3.25;1.70;;;18.30;93.70;;;;;;5022582;28;20132;-78
2023/08/04 10:47:51;;;;;;;4.20;1.70;;;18.40;93.70;;;;;;5036114;28;20103;-77
2023/08/04 10:50:17;;;;;;;4.03;1.60;;;18.40;93.70;;;;;;5011659;28;20090;-77
2023/08/04 10:52:43;;;;;;;3.03;1.70;;;18.40;93.60;;;;;;5056255;28;20025;-78
2023/08/04 10:55:13;;;;;;;3.33;1.60;;;18.40;93.50;;;;;;5055843;28;20028;-77
2023/08/04 10:57:40;;;;;;;3.45;1.80;;;18.50;93.50;;;;;;5038018;28;20021;-77
2023/08/04 11:00:08;;;;;;;4.25;1.90;;;18.50;93.40;;;;;;5037534;28;20025;-78
2023/08/04 11:02:35;;;;;;;3.70;1.70;;;18.50;93.40;;;;;;5037860;28;20032;-77
2023/08/04 11:05:02;;;;;;;3.67;1.65;;;18.50;93.40;;;;;;5037766;28;20033;-77
2023/08/04 11:07:28;;;;;;;2.75;1.55;;;18.50;93.40;;;;;;5037844;28;20028;-78
2023/08/04 11:09:54;;;;;;;3.53;1.60;;;18.50;93.30;;;;;;5037088;28;20120;-77
2023/08/04 11:12:20;;;;;;;2.28;1.35;;;18.50;93.20;;;;;;5037730;28;20400;-79
2023/08/04 11:14:46;;;;;;;1.83;1.38;;;18.50;93.10;;;;;;5055464;28;20032;-77
2023/08/04 11:17:19;;;;;;;2.63;1.50;;;18.50;93.00;;;;;;5037673;28;20389;-77
2023/08/04 11:19:47;;;;;;;3.17;1.55;;;18.60;93.00;;;;;;5037122;28;20021;-77
2023/08/04 11:22:15;;;;;;;2.28;1.38;;;18.50;93.00;;;;;;5046670;28;20018;-78
2023/08/04 11:24:41;;;;;;;2.42;1.42;;;18.50;93.00;;;;;;5037585;28;20029;-78
2023/08/04 11:27:12;;;;;;;3.08;1.80;;;18.50;93.00;;;;;;5035615;28;20022;-78
2023/08/04 11:29:38;;;;;;;3.00;1.50;;;18.60;93.10;;;;;;5037280;28;20029;-78
2023/08/04 11:32:17;;;;;;;3.35;1.42;;;18.50;93.20;;;;;;5054930;28;20124;-77
2023/08/04 11:34:43;;;;;;;2.78;1.40;;;18.50;93.20;;;;;;5055091;28;20079;-80
2023/08/04 11:37:09;;;;;;;2.53;1.48;;;18.50;93.20;;;;;;5055121;28;20029;-77
2023/08/04 11:39:37;;;;;;;2.55;1.40;;;18.50;93.30;;;;;;5054891;28;20025;-77
2023/08/04 11:42:03;;;;;;;2.13;1.40;;;18.40;93.50;;;;;;5054489;28;20523;-77
2023/08/04 11:44:30;;;;;;;2.03;1.40;;;18.50;93.30;;;;;;5036957;28;20028;-77
2023/08/04 11:46:56;;;;;;;2.30;1.35;;;18.50;93.30;;;;;;5054295;28;20036;-77
2023/08/04 11:49:22;;;;;;;2.70;1.27;;;18.50;93.20;;;;;;5033570;28;20041;-76
2023/08/04 11:51:49;;;;;;;2.15;1.30;;;18.50;93.10;;;;;;5033209;28;20026;-78
2023/08/04 11:54:19;;;;;;;2.53;1.48;;;18.60;93.10;;;;;;5053152;28;20067;-77
2023/08/04 11:56:45;;;;;;;3.88;1.50;;;18.60;93.00;;;;;;5036754;28;20029;-77
2023/08/04 11:59:11;;;;;;;1.90;1.25;;;18.60;93.10;;;;;;5036714;28;20114;-77
2023/08/04 12:01:37;;;;;;;2.13;1.30;;;18.60;92.90;;;;;;5022687;28;20022;-77
2023/08/04 12:04:27;;;;;;;2.53;1.45;;;18.60;93.00;;;;;;5017147;28;20030;-77
2023/08/04 12:07:04;;;;;;;2.90;1.40;;;18.60;93.00;;;;;;5054441;28;20029;-77
2023/08/04 12:09:30;;;;;;;2.45;1.30;;;18.60;92.80;;;;;;5034575;28;20485;-77
2023/08/04 12:11:56;;;;;;;3.05;1.40;;;18.60;92.80;;;;;;5052170;28;20029;-77
2023/08/04 12:14:22;;;;;;;3.33;1.40;;;18.60;92.80;;;;;;5033121;28;20410;-77
2023/08/04 12:16:53;;;;;;;2.55;1.30;;;18.60;92.80;;;;;;5032746;28;20177;-78
2023/08/04 12:19:20;;;;;;;2.17;1.27;;;18.60;92.80;;;;;;5044838;28;20040;-77
2023/08/04 12:21:46;;;;;;;2.35;1.27;;;18.60;92.90;;;;;;5027195;28;20108;-77
2023/08/04 12:24:12;;;;;;;2.30;1.15;;;18.60;92.80;;;;;;5016188;28;20087;-77
2023/08/04 12:26:37;;;;;;;2.97;1.00;;;18.60;92.80;;;;;;5039491;28;20025;-77
2023/08/04 12:29:03;;;;;;;2.65;1.30;;;18.70;92.70;;;;;;5033316;28;20069;-76
2023/08/04 12:31:29;;;;;;;3.20;1.20;;;18.70;92.70;;;;;;5040964;28;20485;-78
2023/08/04 12:33:54;;;;;;;2.15;1.20;;;18.70;92.70;;;;;;5041328;28;20034;-76
2023/08/04 12:36:20;;;;;;;2.17;1.15;;;18.80;92.70;;;;;;5033541;28;20025;-77
2023/08/04 12:38:46;;;;;;;5.55;1.40;;;18.70;92.60;;;;;;5030158;28;20043;-77
2023/08/04 12:41:12;;;;;;;2.78;1.10;;;18.80;92.60;;;;;;5053222;28;20017;-77
2023/08/04 12:43:37;;;;;;;4.25;1.45;;;18.80;92.60;;;;;;5035731;28;20442;-77